Time;durP1;ratioP1;P1;durP2;ratioP2;P2;SDS_P1;SDS_P2;PMS_P1;PMS_P2;Temp;Humidity;BMP_temperature;BMP_pressure;BME280_temperature;BME280_humidity;BME280_pressure;Samples;Min_cycle;Max_cycle;Signal;HPM_P1;HPM_P2
2021/04/25 00:01:22;;;;;;;;;;;;;;;-1.28;100.00;101600.22;5094329;28;19993;-64
2021/04/25 00:03:47;;;;;;;;;;;;;;;-1.30;100.00;101610.03;5094082;28;19939;-63
2021/04/25 00:06:13;;;;;;;;;;;;;;;-1.31;100.00;101615.38;5094548;28;19928;-64
2021/04/25 00:08:39;;;;;;;;;;;;;;;-1.34;100.00;101616.31;5094730;28;20442;-64
2021/04/25 00:11:05;;;;;;;;;;;;;;;-1.35;100.00;101611.88;5094417;28;20387;-65
2021/04/25 00:13:31;;;;;;;;;;;;;;;-1.42;100.00;101611.09;5076125;28;20006;-64
2021/04/25 00:15:57;;;;;;;;;;;;;;;-1.43;100.00;101604.03;5094110;28;20034;-64
2021/04/25 00:18:23;;;;;;;;;;;;;;;-1.37;100.00;101597.72;5094305;28;19924;-64
2021/04/25 00:20:49;;;;;;;;;;;;;;;-1.41;100.00;101599.56;5094228;28;19963;-64
2021/04/25 00:23:15;;;;;;;;;;;;;;;-1.41;100.00;101591.56;5093337;28;19925;-64
2021/04/25 00:25:41;;;;;;;;;;;;;;;-1.44;100.00;101601.38;5093857;28;19970;-65
2021/04/25 00:28:07;;;;;;;;;;;;;;;-1.49;100.00;101593.50;5094120;28;19935;-64
2021/04/25 00:30:33;;;;;;;;;;;;;;;-1.52;100.00;101590.88;5094287;28;19930;-64
2021/04/25 00:32:59;;;;;;;;;;;;;;;-1.56;100.00;101587.38;5093628;28;19955;-64
2021/04/25 00:35:25;;;;;;;;;;;;;;;-1.50;100.00;101588.19;5093412;28;19928;-63
2021/04/25 00:37:51;;;;;;;;;;;;;;;-1.61;100.00;101594.56;5076190;28;19966;-64
2021/04/25 00:40:18;;;;;;;;;;;;;;;-1.66;100.00;101591.09;5093954;28;19928;-64
2021/04/25 00:42:44;;;;;;;;;;;;;;;-1.66;100.00;101585.78;5093126;28;20020;-64
2021/04/25 00:45:12;;;;;;;;;;;;;;;-1.69;100.00;101588.50;5093166;28;19932;-64
2021/04/25 00:47:39;;;;;;;;;;;;;;;-1.76;100.00;101584.19;5093858;28;19924;-64
2021/04/25 00:50:05;;;;;;;;;;;;;;;-1.76;100.00;101585.06;5058992;28;19970;-65
2021/04/25 00:52:33;;;;;;;;;;;;;;;-1.81;100.00;101578.06;5075106;28;19930;-64
2021/04/25 00:54:59;;;;;;;;;;;;;;;-1.81;100.00;101578.91;5093125;28;20029;-64
2021/04/25 00:57:24;;;;;;;;;;;;;;;-1.82;100.00;101579.81;5092294;28;20299;-64
2021/04/25 00:59:53;;;;;;;;;;;;;;;-1.88;100.00;101579.94;5093706;28;19989;-64
2021/04/25 01:02:19;;;;;;;;;;;;;;;-1.95;100.00;101578.25;5093185;28;20280;-64
2021/04/25 01:04:44;;;;;;;;;;;;;;;-1.98;100.00;101573.84;5093167;28;19931;-64
2021/04/25 01:07:10;;;;;;;;;;;;;;;-1.96;100.00;101572.06;5093372;28;19935;-64
2021/04/25 01:09:37;;;;;;;;;;;;;;;-1.91;100.00;101570.22;5093193;28;20287;-65
2021/04/25 01:12:03;;;;;;;;;;;;;;;-1.78;100.00;101575.34;5093359;28;20357;-65
2021/04/25 01:14:29;;;;;;;;;;;;;;;-1.71;100.00;101569.00;5092033;28;19924;-64
2021/04/25 01:16:54;;;;;;;;;;;;;;;-1.57;100.00;101576.75;5092820;28;19928;-65
2021/04/25 01:19:20;;;;;;;;;;;;;;;-1.47;100.00;101569.47;5075145;28;19978;-65
2021/04/25 01:21:47;;;;;;;;;;;;;;;-1.39;100.00;101571.13;5093111;28;19956;-64
2021/04/25 01:24:13;;;;;;;;;;;;;;;-1.36;100.00;101565.72;5092993;28;19931;-64
2021/04/25 01:26:39;;;;;;;;;;;;;;;-1.32;100.00;101568.31;5093309;28;20391;-65
2021/04/25 01:29:04;;;;;;;;;;;;;;;-1.29;100.00;101569.16;5093191;28;19931;-65
2021/04/25 01:31:31;;;;;;;;;;;;;;;-1.29;100.00;101563.81;5092667;28;19928;-65
2021/04/25 01:33:56;;;;;;;;;;;;;;;-1.23;100.00;101566.38;5092119;28;19928;-65
2021/04/25 01:36:22;;;;;;;;;;;;;;;-1.24;100.00;101566.44;5092654;28;20445;-65
2021/04/25 01:38:49;;;;;;;;;;;;;;;-1.27;100.00;101570.03;5092876;28;19977;-65
2021/04/25 01:41:15;;;;;;;;;;;;;;;-1.33;100.00;101567.47;5092727;28;19928;-64
2021/04/25 01:43:41;;;;;;;;;;;;;;;-1.37;100.00;101569.28;5092220;28;19924;-65
2021/04/25 01:46:06;;;;;;;;;;;;;;;-1.44;100.00;101566.75;5092979;28;19956;-66
2021/04/25 01:48:32;;;;;;;;;;;;;;;-1.49;100.00;101558.88;5092833;28;19977;-65
2021/04/25 01:50:58;;;;;;;;;;;;;;;-1.46;100.00;101557.94;5092300;28;19966;-66
2021/04/25 01:53:24;;;;;;;;;;;;;;;-1.47;100.00;101559.72;5091893;28;20296;-65
2021/04/25 01:55:50;;;;;;;;;;;;;;;-1.41;100.00;101558.72;5092069;28;19942;-65
2021/04/25 01:58:16;;;;;;;;;;;;;;;-1.35;100.00;101553.28;5092460;28;19931;-65
2021/04/25 02:00:43;;;;;;;;;;;;;;;-1.32;100.00;101549.69;5074294;28;19924;-65
2021/04/25 02:03:10;;;;;;;;;;;;;;;-1.30;100.00;101555.88;5092111;28;19962;-65
2021/04/25 02:05:37;;;;;;;;;;;;;;;-1.27;100.00;101563.78;5074035;28;19924;-65
2021/04/25 02:08:04;;;;;;;;;;;;;;;-1.24;100.00;101575.28;5092116;28;19950;-66
2021/04/25 02:10:29;;;;;;;;;;;;;;;-1.21;100.00;101572.56;5092361;28;19928;-65
2021/04/25 02:12:56;;;;;;;;;;;;;;;-1.15;100.00;101576.00;5091551;28;20123;-65
2021/04/25 02:15:22;;;;;;;;;;;;;;;-1.04;100.00;101569.56;5091538;28;19989;-65
2021/04/25 02:17:48;;;;;;;;;;;;;;;-0.98;100.00;101571.22;5092253;28;20416;-65
2021/04/25 02:20:15;;;;;;;;;;;;;;;-0.91;100.00;101572.88;5092106;28;20026;-65
2021/04/25 02:22:41;;;;;;;;;;;;;;;-0.85;100.00;101569.22;5073696;28;19997;-65
2021/04/25 02:25:08;;;;;;;;;;;;;;;-0.75;100.00;101577.88;5091577;28;19932;-65
2021/04/25 02:27:34;;;;;;;;;;;;;;;-0.68;100.00;101583.06;5091756;28;20018;-65
2021/04/25 02:30:01;;;;;;;;;;;;;;;-0.64;100.00;101583.91;5091937;28;19938;-65
2021/04/25 02:32:27;;;;;;;;;;;;;;;-0.58;100.00;101593.56;5091774;28;19977;-65
2021/04/25 02:34:53;;;;;;;;;;;;;;;-0.53;100.00;101589.88;5091559;28;19978;-65
2021/04/25 02:37:19;;;;;;;;;;;;;;;-0.49;100.00;101585.34;5091501;28;20337;-66
2021/04/25 02:39:44;;;;;;;;;;;;;;;-0.42;100.00;101583.44;5091878;28;19924;-65
2021/04/25 02:42:10;;;;;;;;;;;;;;;-0.37;100.00;101576.22;5091420;28;20205;-65
2021/04/25 02:44:36;;;;;;;;;;;;;;;-0.37;100.00;101589.56;5091328;28;20027;-65
2021/04/25 02:47:03;;;;;;;;;;;;;;;-0.38;100.00;101591.31;5091490;28;19924;-65
2021/04/25 02:49:29;;;;;;;;;;;;;;;-0.38;100.00;101590.47;5091219;28;19946;-65
2021/04/25 02:51:54;;;;;;;;;;;;;;;-0.39;100.00;101581.59;5091409;28;19924;-66
2021/04/25 02:54:20;;;;;;;;;;;;;;;-0.48;100.00;101576.44;5091391;28;20326;-65
2021/04/25 02:56:46;;;;;;;;;;;;;;;-0.54;100.00;101561.44;5073288;28;20463;-65
2021/04/25 02:59:12;;;;;;;;;;;;;;;-0.71;100.00;101566.25;5091332;28;19924;-65
2021/04/25 03:01:38;;;;;;;;;;;;;;;-0.85;100.00;101563.88;5091287;28;19928;-65
2021/04/25 03:04:05;;;;;;;;;;;;;;;-0.99;100.00;101555.28;5090328;28;19924;-65
2021/04/25 03:06:30;;;;;;;;;;;;;;;-1.11;100.00;101561.72;5091022;28;19928;-66
2021/04/25 03:08:56;;;;;;;;;;;;;;;-1.15;100.00;101565.34;5091471;28;20081;-65
2021/04/25 03:11:22;;;;;;;;;;;;;;;-1.18;100.00;101560.97;5091108;28;19932;-65
2021/04/25 03:13:48;;;;;;;;;;;;;;;-1.22;100.00;101572.59;5091143;28;19931;-65
2021/04/25 03:16:14;;;;;;;;;;;;;;;-1.25;100.00;101568.19;5091068;28;20027;-66
2021/04/25 03:18:40;;;;;;;;;;;;;;;-1.28;100.00;101575.34;5091095;28;19924;-64
2021/04/25 03:21:07;;;;;;;;;;;;;;;-1.31;100.00;101580.75;5078023;28;20019;-65
2021/04/25 03:23:32;;;;;;;;;;;;;;;-1.28;100.00;101581.56;5097724;28;19931;-66
2021/04/25 03:25:58;;;;;;;;;;;;;;;-1.17;100.00;101580.50;5098314;28;19987;-66
2021/04/25 03:28:24;;;;;;;;;;;;;;;-1.04;100.00;101577.56;5098174;28;19969;-65
2021/04/25 03:30:50;;;;;;;;;;;;;;;-0.94;100.00;101570.25;5097949;28;20314;-65
2021/04/25 03:33:16;;;;;;;;;;;;;;;-0.82;100.00;101562.94;5097202;28;19931;-66
2021/04/25 03:35:42;;;;;;;;;;;;;;;-0.73;100.00;101562.75;5079384;28;19924;-66
2021/04/25 03:38:09;;;;;;;;;;;;;;;-0.59;100.00;101566.00;5098105;28;19935;-66
2021/04/25 03:40:35;;;;;;;;;;;;;;;-0.47;100.00;101561.31;5097796;28;19936;-66
2021/04/25 03:43:00;;;;;;;;;;;;;;;-0.35;100.00;101555.69;5097559;28;20375;-65
2021/04/25 03:45:26;;;;;;;;;;;;;;;-0.30;100.00;101551.13;5078788;28;19928;-65
2021/04/25 03:47:52;;;;;;;;;;;;;;;-0.21;100.00;101550.06;5097781;28;19924;-65
2021/04/25 03:50:20;;;;;;;;;;;;;;;-0.17;100.00;101539.25;5079521;28;19925;-65
2021/04/25 03:52:46;;;;;;;;;;;;;;;-0.08;100.00;101539.94;5097152;28;19970;-65
2021/04/25 03:55:14;;;;;;;;;;;;;;;-0.01;100.00;101544.25;5096990;28;19924;-65
2021/04/25 03:57:40;;;;;;;;;;;;;;;0.08;100.00;101537.78;5097499;28;19924;-64
2021/04/25 04:00:07;;;;;;;;;;;;;;;0.15;100.00;101534.94;5097371;28;19924;-65
2021/04/25 04:02:33;;;;;;;;;;;;;;;0.23;100.00;101534.75;5097203;28;19974;-65
2021/04/25 04:04:59;;;;;;;;;;;;;;;0.26;100.00;101542.69;5096901;28;19924;-65
2021/04/25 04:07:26;;;;;;;;;;;;;;;0.31;100.00;101538.09;5096644;28;22606;-65
2021/04/25 04:09:52;;;;;;;;;;;;;;;0.37;100.00;101547.75;5097470;28;19950;-65
2021/04/25 04:12:19;;;;;;;;;;;;;;;0.42;100.00;101559.19;5097400;28;20018;-65
2021/04/25 04:14:45;;;;;;;;;;;;;;;0.45;100.00;101561.78;5097548;28;20355;-65
2021/04/25 04:17:11;;;;;;;;;;;;;;;0.55;100.00;101561.53;5097018;28;19966;-65
2021/04/25 04:19:37;;;;;;;;;;;;;;;0.61;100.00;101566.72;5097619;28;19924;-65
2021/04/25 04:22:03;;;;;;;;;;;;;;;0.66;100.00;101567.50;5097179;28;20000;-64
2021/04/25 04:24:29;;;;;;;;;;;;;;;0.71;100.00;101570.03;5078455;28;19924;-64
2021/04/25 04:26:55;;;;;;;;;;;;;;;0.79;100.00;101563.56;5079028;28;19993;-64
2021/04/25 04:29:21;;;;;;;;;;;;;;;0.87;100.00;101562.47;5097362;28;19927;-64
2021/04/25 04:31:47;;;;;;;;;;;;;;;0.96;100.00;101562.22;5095184;28;19924;-64
2021/04/25 04:34:13;;;;;;;;;;;;;;;1.04;100.00;101570.03;5093112;28;19973;-64
2021/04/25 04:36:39;;;;;;;;;;;;;;;1.11;100.00;101568.94;5093646;28;20317;-65
2021/04/25 04:39:05;;;;;;;;;;;;;;;1.20;100.00;101578.50;5076058;28;20289;-66
2021/04/25 04:41:31;;;;;;;;;;;;;;;1.27;100.00;101577.41;5094022;28;19970;-65
2021/04/25 04:43:58;;;;;;;;;;;;;;;1.34;100.00;101576.31;5093642;28;19928;-65
2021/04/25 04:46:25;;;;;;;;;;;;;;;1.41;100.00;101572.53;5093770;28;19925;-64
2021/04/25 04:48:50;;;;;;;;;;;;;;;1.46;100.00;101572.41;5094167;28;19924;-64
2021/04/25 04:51:16;;;;;;;;;;;;;;;1.49;100.00;101573.19;5093877;28;20014;-65
2021/04/25 04:53:42;;;;;;;;;;;;;;;1.55;100.00;101577.50;5093070;28;20422;-65
2021/04/25 04:56:08;;;;;;;;;;;;;;;1.64;100.00;101576.31;5093496;28;19934;-65
2021/04/25 04:58:34;;;;;;;;;;;;;;;1.76;100.00;101583.09;5093856;28;20295;-64
2021/04/25 05:00:59;;;;;;;;;;;;;;;1.88;100.00;101579.16;5093830;28;19924;-64
2021/04/25 05:03:26;;;;;;;;;;;;;;;1.95;100.00;101575.38;5093115;28;20042;-65
2021/04/25 05:05:52;;;;;;;;;;;;;;;2.05;100.00;101573.28;5093463;28;19982;-66
2021/04/25 05:08:18;;;;;;;;;;;;;;;2.15;100.00;101567.59;5096028;28;20387;-64
2021/04/25 05:10:43;;;;;;;;;;;;;;;2.31;100.00;101580.47;5097558;28;20019;-64
2021/04/25 05:13:10;;;;;;;;;;;;;;;2.40;100.00;101581.97;5093209;28;20395;-65
2021/04/25 05:15:36;;;;;;;;;;;;;;;2.51;100.00;101579.78;5092887;28;20198;-65
2021/04/25 05:18:02;;;;;;;;;;;;;;;2.63;100.00;101578.50;5092744;28;19924;-64
2021/04/25 05:20:28;;;;;;;;;;;;;;;2.74;100.00;101573.66;5092796;28;20436;-65
2021/04/25 05:22:54;;;;;;;;;;;;;;;2.84;100.00;101579.56;5092916;28;19947;-64
2021/04/25 05:25:20;;;;;;;;;;;;;;;2.94;100.00;101580.09;5092722;28;20295;-64
2021/04/25 05:27:46;;;;;;;;;;;;;;;3.05;100.00;101587.75;5092422;28;19932;-64
2021/04/25 05:30:12;;;;;;;;;;;;;;;3.11;100.00;101580.38;5092799;28;19931;-67
2021/04/25 05:32:38;;;;;;;;;;;;;;;3.22;100.00;101576.41;5084974;28;19931;-67
2021/04/25 05:35:04;;;;;;;;;;;;;;;3.35;100.00;101581.28;5092104;28;19924;-67
2021/04/25 05:37:31;;;;;;;;;;;;;;;3.52;100.00;101583.31;5092076;28;19924;-67
2021/04/25 05:39:57;;;;;;;;;;;;;;;3.71;100.00;101582.63;5092430;28;20085;-67
2021/04/25 05:42:22;;;;;;;;;;;;;;;3.83;100.00;101573.22;5092380;28;19924;-67
2021/04/25 05:44:48;;;;;;;;;;;;;;;4.00;100.00;101575.22;5091016;28;19928;-67
2021/04/25 05:47:14;;;;;;;;;;;;;;;4.08;100.00;101572.25;5092492;28;19936;-67
2021/04/25 05:49:40;;;;;;;;;;;;;;;4.27;100.00;101566.97;5092423;28;20271;-67
2021/04/25 05:52:06;;;;;;;;;;;;;;;4.46;100.00;101570.66;5070535;28;19932;-67
2021/04/25 05:54:32;;;;;;;;;;;;;;;4.70;100.00;101573.22;5091598;28;20009;-67
2021/04/25 05:56:58;;;;;;;;;;;;;;;5.05;100.00;101567.22;5092002;28;19928;-69
2021/04/25 05:59:24;;;;;;;;;;;;;;;5.29;100.00;101567.94;5092011;28;19931;-68
2021/04/25 06:01:50;;;;;;;;;;;;;;;5.54;100.00;101578.47;5091716;28;19928;-69
2021/04/25 06:04:16;;;;;;;;;;;;;;;5.72;100.00;101574.03;5091524;28;20390;-67
2021/04/25 06:06:42;;;;;;;;;;;;;;;5.86;100.00;101584.16;5091746;28;19998;-67
2021/04/25 06:09:08;;;;;;;;;;;;;;;6.10;100.00;101581.25;5091289;28;20339;-67
2021/04/25 06:11:34;;;;;;;;;;;;;;;6.23;100.00;101570.72;5074127;28;19927;-67
2021/04/25 06:14:01;;;;;;;;;;;;;;;6.39;98.10;101573.53;5091945;28;19935;-67
2021/04/25 06:16:26;;;;;;;;;;;;;;;6.57;97.75;101560.94;5091469;28;19928;-67
2021/04/25 06:18:52;;;;;;;;;;;;;;;6.76;96.39;101566.28;5073567;28;19931;-67
2021/04/25 06:21:18;;;;;;;;;;;;;;;6.86;90.48;101571.09;5091564;28;20300;-67
2021/04/25 06:23:44;;;;;;;;;;;;;;;6.99;88.78;101563.25;5091478;28;20414;-66
2021/04/25 06:26:10;;;;;;;;;;;;;;;7.01;88.45;101568.56;5056807;28;19925;-67
2021/04/25 06:28:37;;;;;;;;;;;;;;;7.24;90.79;101571.84;5073092;28;19981;-67
2021/04/25 06:31:02;;;;;;;;;;;;;;;7.55;90.06;101573.78;5091034;28;19931;-67
2021/04/25 06:33:28;;;;;;;;;;;;;;;7.61;82.01;101572.56;5090132;28;19928;-67
2021/04/25 06:35:54;;;;;;;;;;;;;;;7.66;82.43;101579.44;5091632;28;19954;-67
2021/04/25 06:38:20;;;;;;;;;;;;;;;7.54;77.80;101577.44;5091426;28;19974;-70
2021/04/25 06:40:46;;;;;;;;;;;;;;;7.43;78.68;101578.03;5091196;28;19924;-69
2021/04/25 06:43:12;;;;;;;;;;;;;;;7.28;79.40;101578.84;5091128;28;19924;-69
2021/04/25 06:45:39;;;;;;;;;;;;;;;6.98;73.97;101577.69;5091402;28;20297;-70
2021/04/25 06:48:05;;;;;;;;;;;;;;;7.05;77.55;101586.34;5090881;28;19924;-70
2021/04/25 06:50:31;;;;;;;;;;;;;;;6.94;76.66;101580.66;5091290;28;19928;-69
2021/04/25 06:52:57;;;;;;;;;;;;;;;7.06;78.23;101585.38;5090844;28;19977;-70
2021/04/25 06:55:23;;;;;;;;;;;;;;;7.28;79.34;101586.94;5089026;28;20387;-70
2021/04/25 06:57:50;;;;;;;;;;;;;;;7.37;78.70;101591.84;5090708;28;20346;-70
2021/04/25 07:00:17;;;;;;;;;;;;;;;7.52;83.14;101590.13;5091073;28;19924;-70
2021/04/25 07:02:45;;;;;;;;;;;;;;;7.59;77.52;101596.97;5089822;28;19924;-70
2021/04/25 07:05:11;;;;;;;;;;;;;;;7.43;74.61;101590.63;5090961;28;19935;-70
2021/04/25 07:07:37;;;;;;;;;;;;;;;7.47;76.48;101592.22;5072960;28;20406;-70
2021/04/25 07:10:04;;;;;;;;;;;;;;;7.59;77.77;101593.38;5091285;28;19924;-70
2021/04/25 07:12:29;;;;;;;;;;;;;;;7.60;71.86;101587.88;5090780;28;19925;-70
2021/04/25 07:14:56;;;;;;;;;;;;;;;7.54;71.38;101586.41;5073011;28;19931;-70
2021/04/25 07:17:22;;;;;;;;;;;;;;;7.76;68.37;101597.84;5071877;28;19977;-70
2021/04/25 07:19:49;;;;;;;;;;;;;;;7.99;66.30;101591.16;5091199;28;20018;-70
2021/04/25 07:22:15;;;;;;;;;;;;;;;7.83;63.39;101602.84;5072247;28;19924;-70
2021/04/25 07:24:41;;;;;;;;;;;;;;;7.59;60.64;101590.69;5090690;28;20303;-70
2021/04/25 07:27:07;;;;;;;;;;;;;;;7.37;63.33;101595.41;5090728;28;19967;-70
2021/04/25 07:29:33;;;;;;;;;;;;;;;7.28;67.54;101597.75;5090564;28;20067;-70
2021/04/25 07:31:58;;;;;;;;;;;;;;;7.12;67.69;101603.97;5088937;28;19956;-70
2021/04/25 07:34:25;;;;;;;;;;;;;;;7.03;68.97;101604.47;5090398;28;20010;-69
2021/04/25 07:36:52;;;;;;;;;;;;;;;6.90;66.89;101600.66;5090437;28;19967;-70
2021/04/25 07:39:18;;;;;;;;;;;;;;;6.90;67.68;101609.63;5090603;28;19924;-70
2021/04/25 07:41:43;;;;;;;;;;;;;;;6.90;68.37;101609.63;5090117;28;19967;-71
2021/04/25 07:44:09;;;;;;;;;;;;;;;6.96;71.09;101613.81;5090905;28;19969;-71
2021/04/25 07:46:35;;;;;;;;;;;;;;;6.96;71.14;101619.22;5090475;28;19954;-70
2021/04/25 07:49:01;;;;;;;;;;;;;;;6.92;73.72;101623.91;5090690;28;19924;-70
2021/04/25 07:51:27;;;;;;;;;;;;;;;6.93;80.09;101630.19;5090664;28;19977;-70
2021/04/25 07:53:55;;;;;;;;;;;;;;;6.75;73.93;101632.88;5090401;28;19943;-70
2021/04/25 07:56:21;;;;;;;;;;;;;;;6.63;66.87;101633.50;5090458;28;19924;-70
2021/04/25 07:58:47;;;;;;;;;;;;;;;6.52;70.00;101634.91;5090805;28;19986;-70
2021/04/25 08:01:14;;;;;;;;;;;;;;;6.44;68.85;101636.22;5090156;28;19924;-70
2021/04/25 08:03:40;;;;;;;;;;;;;;;6.43;71.22;101642.59;5089297;28;19924;-70
2021/04/25 08:06:06;;;;;;;;;;;;;;;6.29;71.31;101646.78;5090019;28;19924;-70
2021/04/25 08:08:32;;;;;;;;;;;;;;;6.32;71.97;101656.56;5094129;28;20580;-70
2021/04/25 08:10:59;;;;;;;;;;;;;;;6.16;74.34;101656.44;5093891;28;20011;-70
2021/04/25 08:13:25;;;;;;;;;;;;;;;6.10;75.75;101654.91;5093782;28;19928;-70
2021/04/25 08:15:51;;;;;;;;;;;;;;;5.93;75.24;101660.19;5093939;28;20448;-70
2021/04/25 08:18:17;;;;;;;;;;;;;;;5.87;81.69;101654.13;5094039;28;19925;-70
2021/04/25 08:20:43;;;;;;;;;;;;;;;6.04;88.18;101657.91;5093905;28;20039;-70
2021/04/25 08:23:09;;;;;;;;;;;;;;;6.15;89.08;101658.25;5093132;28;19928;-70
2021/04/25 08:25:35;;;;;;;;;;;;;;;6.28;83.80;101652.28;5093410;28;20084;-70
2021/04/25 08:28:01;;;;;;;;;;;;;;;6.23;85.78;101655.19;5092929;28;19924;-70
2021/04/25 08:30:27;;;;;;;;;;;;;;;6.27;87.52;101656.81;5092838;28;19958;-70
2021/04/25 08:32:53;;;;;;;;;;;;;;;6.29;86.86;101659.41;5083412;28;19924;-70
2021/04/25 08:35:19;;;;;;;;;;;;;;;6.33;87.80;101656.50;5087994;28;20425;-69
2021/04/25 08:37:45;;;;;;;;;;;;;;;6.36;88.91;101655.50;5087430;28;20303;-70
2021/04/25 08:40:11;;;;;;;;;;;;;;;6.32;87.21;101649.38;5088728;28;19928;-70
2021/04/25 08:42:37;;;;;;;;;;;;;;;6.40;88.45;101653.50;5089332;28;19935;-70
2021/04/25 08:45:04;;;;;;;;;;;;;;;6.32;89.28;101653.88;5083599;28;19929;-70
2021/04/25 08:47:30;;;;;;;;;;;;;;;6.52;90.10;101652.88;5091922;28;19924;-71
2021/04/25 08:49:58;;;;;;;;;;;;;;;6.82;90.36;101655.03;5086498;28;19935;-70
2021/04/25 08:52:24;;;;;;;;;;;;;;;7.12;88.57;101652.59;5088898;28;19925;-71
2021/04/25 08:54:50;;;;;;;;;;;;;;;7.31;86.68;101649.78;5089477;28;19924;-71
2021/04/25 08:57:16;;;;;;;;;;;;;;;7.27;85.06;101650.91;5092670;28;19928;-71
2021/04/25 08:59:42;;;;;;;;;;;;;;;7.54;84.43;101651.25;5092815;28;19993;-68
2021/04/25 09:02:09;;;;;;;;;;;;;;;7.43;82.93;101639.25;5092721;28;19981;-67
2021/04/25 09:04:34;;;;;;;;;;;;;;;7.54;80.90;101643.13;5074604;28;20426;-68
2021/04/25 09:07:01;;;;;;;;;;;;;;;7.95;79.30;101647.25;5093632;28;20279;-67
2021/04/25 09:09:44;;;;;;;;;;;;;;;7.85;79.88;101641.47;5093138;28;19924;-68
2021/04/25 09:12:12;;;;;;;;;;;;;;;7.79;80.47;101641.81;5089845;28;19924;-70
2021/04/25 09:14:38;;;;;;;;;;;;;;;7.72;78.46;101629.56;5091222;28;20092;-70
2021/04/25 09:17:05;;;;;;;;;;;;;;;8.03;79.76;101630.56;5092758;28;19924;-70
2021/04/25 09:19:46;;;;;;;;;;;;;;;8.50;76.12;101623.47;5091856;28;19931;-70
2021/04/25 09:22:13;;;;;;;;;;;;;;;8.52;71.07;101616.13;5072803;28;19931;-68
2021/04/25 09:24:39;;;;;;;;;;;;;;;8.20;70.14;101619.69;5092155;28;19924;-68
2021/04/25 09:27:05;;;;;;;;;;;;;;;8.02;70.17;101615.34;5093365;28;19924;-70
2021/04/25 09:29:46;;;;;;;;;;;;;;;8.27;70.22;101612.09;5092317;28;20363;-70
2021/04/25 09:32:15;;;;;;;;;;;;;;;8.35;71.05;101611.66;5091581;28;19924;-70
2021/04/25 09:34:42;;;;;;;;;;;;;;;8.28;68.77;101605.72;5090480;28;19932;-70
2021/04/25 09:37:11;;;;;;;;;;;;;;;8.16;67.16;101612.72;5091593;28;19924;-66
2021/04/25 09:39:38;;;;;;;;;;;;;;;8.32;67.61;101614.53;5090915;28;19947;-67
2021/04/25 09:42:04;;;;;;;;;;;;;;;8.09;66.59;101611.31;5091822;28;19947;-69
2021/04/25 09:44:32;;;;;;;;;;;;;;;8.66;67.11;101605.34;5091051;28;19938;-70
2021/04/25 09:47:00;;;;;;;;;;;;;;;9.34;65.92;101603.97;5086782;28;20007;-67
2021/04/25 09:49:36;;;;;;;;;;;;;;;9.36;66.45;101609.28;5091319;28;19932;-67
2021/04/25 09:52:02;;;;;;;;;;;;;;;10.40;62.52;101602.72;5091348;28;20251;-68
2021/04/25 09:54:28;;;;;;;;;;;;;;;11.71;55.61;101604.53;5091302;28;20002;-69
2021/04/25 09:56:55;;;;;;;;;;;;;;;11.32;50.27;101606.41;5091152;28;20278;-69
2021/04/25 09:59:21;;;;;;;;;;;;;;;11.29;50.81;101599.34;5089772;28;19924;-68
2021/04/25 10:01:46;;;;;;;;;;;;;;;10.84;50.90;101593.41;5092032;28;19977;-70
2021/04/25 10:04:29;;;;;;;;;;;;;;;11.71;49.31;101590.94;5091235;28;19971;-70
2021/04/25 10:06:55;;;;;;;;;;;;;;;12.37;49.02;101591.56;5091470;28;19924;-71
2021/04/25 10:09:21;;;;;;;;;;;;;;;12.98;47.28;101585.09;5091656;28;19938;-69
2021/04/25 10:11:47;;;;;;;;;;;;;;;13.93;45.60;101585.84;5091247;28;19932;-70
2021/04/25 10:14:14;;;;;;;;;;;;;;;13.26;44.73;101582.09;5073623;28;19924;-71
2021/04/25 10:16:42;;;;;;;;;;;;;;;13.87;46.07;101587.22;5091372;28;19930;-70
2021/04/25 10:19:08;;;;;;;;;;;;;;;13.44;44.58;101586.09;5107481;28;19924;-70
2021/04/25 10:21:34;;;;;;;;;;;;;;;13.54;43.58;101589.81;5090587;28;19982;-70
2021/04/25 10:24:00;;;;;;;;;;;;;;;13.51;44.54;101578.31;5087561;28;20391;-70
2021/04/25 10:26:28;;;;;;;;;;;;;;;14.44;42.72;101585.22;5089610;28;20387;-71
2021/04/25 10:28:56;;;;;;;;;;;;;;;14.95;40.96;101571.88;5091342;28;20402;-70
2021/04/25 10:31:27;;;;;;;;;;;;;;;15.47;39.70;101578.25;5089720;28;19924;-70
2021/04/25 10:33:53;;;;;;;;;;;;;;;15.00;40.80;101575.09;5090975;28;19924;-70
2021/04/25 10:36:20;;;;;;;;;;;;;;;14.00;41.25;101579.78;5090990;28;20303;-71
2021/04/25 10:38:46;;;;;;;;;;;;;;;13.74;45.38;101584.63;5091029;28;19925;-71
2021/04/25 10:41:19;;;;;;;;;;;;;;;13.34;41.09;101571.44;5090883;28;19924;-71
2021/04/25 10:43:58;;;;;;;;;;;;;;;12.82;36.88;101569.06;5089685;28;20345;-70
2021/04/25 10:46:25;;;;;;;;;;;;;;;12.41;38.24;101570.38;5090504;28;20353;-70
2021/04/25 10:48:50;;;;;;;;;;;;;;;12.41;37.23;101575.84;5090892;28;19924;-70
2021/04/25 10:51:17;;;;;;;;;;;;;;;12.05;39.90;101574.88;5090989;28;19963;-70
2021/04/25 10:53:44;;;;;;;;;;;;;;;11.41;39.29;101581.28;5090817;28;19924;-70
2021/04/25 10:56:31;;;;;;;;;;;;;;;11.25;39.58;101577.91;5090599;28;19949;-70
2021/04/25 10:59:24;;;;;;;;;;;;;;;11.07;40.87;101575.50;5091150;28;20268;-70
2021/04/25 11:01:51;;;;;;;;;;;;;;;10.45;39.58;101581.53;5090436;28;20422;-70
2021/04/25 11:04:35;;;;;;;;;;;;;;;10.54;39.51;101576.38;5090544;28;19924;-70
2021/04/25 11:07:12;;;;;;;;;;;;;;;10.55;40.75;101575.41;5090641;28;19959;-70
2021/04/25 11:09:53;;;;;;;;;;;;;;;11.87;37.46;101566.22;5090615;28;19975;-70
2021/04/25 11:12:33;;;;;;;;;;;;;;;13.16;35.07;101558.28;5088727;28;19930;-70
2021/04/25 11:14:59;;;;;;;;;;;;;;;14.85;36.33;101556.28;5090405;28;20599;-71
2021/04/25 11:17:29;;;;;;;;;;;;;;;14.95;34.31;101560.94;5090081;28;19931;-71
2021/04/25 11:19:55;;;;;;;;;;;;;;;15.43;33.21;101567.72;5070529;28;19978;-71
2021/04/25 11:22:36;;;;;;;;;;;;;;;14.70;30.91;101577.59;5070695;28;19964;-71
2021/04/25 11:25:25;;;;;;;;;;;;;;;13.12;30.01;101570.41;5089501;28;19924;-71
2021/04/25 11:27:51;;;;;;;;;;;;;;;12.82;33.08;101574.53;5090529;28;19924;-71
2021/04/25 11:30:33;;;;;;;;;;;;;;;12.30;31.83;101573.91;5087071;28;19977;-71
2021/04/25 11:33:28;;;;;;;;;;;;;;;11.88;34.22;101585.13;5052407;28;20293;-70
2021/04/25 11:36:14;;;;;;;;;;;;;;;11.73;35.02;101591.69;5065883;28;20334;-70
2021/04/25 11:38:45;;;;;;;;;;;;;;;11.59;35.80;101589.09;5090586;28;19977;-70
2021/04/25 11:41:11;;;;;;;;;;;;;;;11.62;34.77;101587.03;5090799;28;20387;-70
2021/04/25 11:43:41;;;;;;;;;;;;;;;11.52;35.90;101589.53;5093032;28;19928;-70
2021/04/25 11:46:06;;;;;;;;;;;;;;;11.51;35.66;101590.50;5094496;28;19924;-70
2021/04/25 11:48:32;;;;;;;;;;;;;;;11.49;35.23;101586.16;5094466;28;19950;-70
2021/04/25 11:50:58;;;;;;;;;;;;;;;11.39;34.31;101591.41;5089451;28;19924;-70
2021/04/25 11:53:31;;;;;;;;;;;;;;;11.55;33.03;101583.88;5092049;28;20354;-67
2021/04/25 11:55:57;;;;;;;;;;;;;;;11.99;34.01;101588.97;5094352;28;20027;-66
2021/04/25 11:58:23;;;;;;;;;;;;;;;12.38;32.51;101586.97;5094245;28;19951;-65
2021/04/25 12:00:49;;;;;;;;;;;;;;;13.64;32.18;101586.34;5092422;28;20566;-64
2021/04/25 12:03:15;;;;;;;;;;;;;;;14.86;27.54;101568.94;5092576;28;20355;-65
2021/04/25 12:05:42;;;;;;;;;;;;;;;15.90;28.49;101568.97;5093373;28;19924;-64
2021/04/25 12:08:09;;;;;;;;;;;;;;;16.75;26.05;101565.75;5093887;28;19925;-65
2021/04/25 12:10:36;;;;;;;;;;;;;;;17.45;25.12;101560.03;5093934;28;19924;-65
2021/04/25 12:13:08;;;;;;;;;;;;;;;18.19;26.94;101568.38;5093847;28;19928;-65
2021/04/25 12:15:38;;;;;;;;;;;;;;;18.67;24.84;101566.31;5093858;28;20376;-65
2021/04/25 12:18:05;;;;;;;;;;;;;;;17.28;22.84;101569.06;5093943;28;19931;-64
2021/04/25 12:20:30;;;;;;;;;;;;;;;15.89;25.06;101567.22;5094037;28;19935;-64
2021/04/25 12:22:57;;;;;;;;;;;;;;;14.82;26.68;101567.47;5093439;28;19924;-64
2021/04/25 12:25:23;;;;;;;;;;;;;;;14.19;26.92;101565.44;5075491;28;19970;-64
2021/04/25 12:27:49;;;;;;;;;;;;;;;13.75;28.98;101570.00;5094067;28;19925;-65
2021/04/25 12:30:16;;;;;;;;;;;;;;;13.41;28.62;101567.25;5093677;28;19928;-64
2021/04/25 12:32:42;;;;;;;;;;;;;;;12.85;29.82;101566.13;5093510;28;20310;-64
2021/04/25 12:35:08;;;;;;;;;;;;;;;12.34;30.91;101556.38;5093187;28;19928;-64